createdAt,value
2022-09-15T00:00:09.255Z,0.00
2022-09-15T00:01:09.242Z,0.00
2022-09-15T00:02:09.563Z,0.00
2022-09-15T00:03:09.306Z,0.00
2022-09-15T00:04:09.203Z,0.00
2022-09-15T00:05:09.188Z,0.00
2022-09-15T00:06:09.177Z,0.00
2022-09-15T00:07:09.163Z,0.00
2022-09-15T00:08:09.153Z,0.00
2022-09-15T00:09:09.138Z,0.00
2022-09-15T00:11:09.109Z,0.00
2022-09-15T00:12:09.099Z,0.00
2022-09-15T00:13:09.084Z,0.00
2022-09-15T00:14:09.078Z,0.00
2022-09-15T00:15:09.059Z,0.00
2022-09-15T00:16:09.134Z,0.00
2022-09-15T00:17:09.100Z,0.00
2022-09-15T00:18:09.046Z,0.00
2022-09-15T00:19:09.007Z,0.00
2022-09-15T00:20:08.995Z,0.00
2022-09-15T00:22:08.968Z,0.00
2022-09-15T00:23:08.955Z,0.00
2022-09-15T00:24:08.944Z,0.00
2022-09-15T00:25:08.928Z,0.00
2022-09-15T00:26:08.922Z,0.00
2022-09-15T00:27:08.902Z,0.00
2022-09-15T00:28:08.890Z,0.00
2022-09-15T00:29:08.877Z,0.00
2022-09-15T00:30:08.869Z,0.00
2022-09-15T00:31:08.911Z,0.00
2022-09-15T00:33:08.824Z,0.00
2022-09-15T00:34:08.836Z,0.00
2022-09-15T00:35:08.796Z,0.00
2022-09-15T00:36:08.787Z,0.00
2022-09-15T00:37:08.771Z,0.00
2022-09-15T00:38:08.760Z,0.00
2022-09-15T00:39:08.747Z,0.00
2022-09-15T00:40:08.826Z,0.00
2022-09-15T00:41:08.718Z,0.00
2022-09-15T00:42:08.712Z,0.00
2022-09-15T00:44:08.687Z,0.00
2022-09-15T00:45:08.666Z,0.00
2022-09-15T00:46:08.855Z,0.00
2022-09-15T00:47:19.558Z,0.00
2022-09-15T00:48:10.628Z,0.00
2022-09-15T00:49:08.617Z,0.00
2022-09-15T00:50:08.627Z,0.00
2022-09-15T00:51:08.590Z,0.00
2022-09-15T00:52:08.578Z,0.00
2022-09-15T00:53:08.563Z,0.00
2022-09-15T00:55:08.536Z,0.00
2022-09-15T00:56:08.524Z,0.00
2022-09-15T00:57:08.511Z,0.00
2022-09-15T00:58:08.499Z,0.00
2022-09-15T00:59:08.485Z,0.00
2022-09-15T01:00:08.475Z,0.00
2022-09-15T01:01:08.534Z,0.00
2022-09-15T01:02:08.514Z,0.00
2022-09-15T01:03:08.432Z,0.00
2022-09-15T01:04:08.420Z,0.00
2022-09-15T01:06:08.416Z,0.00
2022-09-15T01:07:08.380Z,0.00
2022-09-15T01:08:08.369Z,0.00
2022-09-15T01:09:08.381Z,0.00
2022-09-15T01:10:08.346Z,0.00
2022-09-15T01:11:08.327Z,0.00
2022-09-15T01:12:08.318Z,0.00
2022-09-15T01:13:08.302Z,0.00
2022-09-15T01:14:08.290Z,0.00
2022-09-15T01:15:08.280Z,0.00
2022-09-15T01:17:08.250Z,0.00
2022-09-15T01:18:08.237Z,0.00
2022-09-15T01:19:08.223Z,0.00
2022-09-15T01:20:08.212Z,0.00
2022-09-15T01:21:08.197Z,0.00
2022-09-15T01:22:08.209Z,0.00
2022-09-15T01:23:08.172Z,0.00
2022-09-15T01:24:08.160Z,0.00
2022-09-15T01:25:08.146Z,0.00
2022-09-15T01:26:08.134Z,0.00
2022-09-15T01:28:08.109Z,0.00
2022-09-15T01:29:08.098Z,0.00
2022-09-15T01:30:08.082Z,0.00
2022-09-15T01:31:08.070Z,0.00
2022-09-15T01:32:08.062Z,0.00
2022-09-15T01:33:08.042Z,0.00
2022-09-15T01:34:08.030Z,0.00
2022-09-15T01:35:08.017Z,0.00
2022-09-15T01:36:08.011Z,0.00
2022-09-15T01:37:07.989Z,0.00
2022-09-15T01:39:07.969Z,0.00
2022-09-15T01:40:08.055Z,0.00
2022-09-15T01:41:07.938Z,0.00
2022-09-15T01:42:07.927Z,0.00
2022-09-15T01:43:07.912Z,0.00
2022-09-15T01:44:07.903Z,0.00
2022-09-15T01:45:07.886Z,0.00
2022-09-15T01:46:07.943Z,0.00
2022-09-15T01:47:07.864Z,0.00
2022-09-15T01:48:07.850Z,0.00
2022-09-15T01:50:07.824Z,0.00
2022-09-15T01:51:07.809Z,0.00
2022-09-15T01:52:07.799Z,0.00
2022-09-15T01:53:07.784Z,0.00
2022-09-15T01:54:07.798Z,0.00
2022-09-15T01:55:07.758Z,0.00
2022-09-15T01:56:07.746Z,0.00
2022-09-15T01:57:07.731Z,0.00
2022-09-15T01:58:07.721Z,0.00
2022-09-15T01:59:07.705Z,0.00
2022-09-15T02:01:07.821Z,0.00
2022-09-15T02:02:07.738Z,0.00
2022-09-15T02:03:07.653Z,0.00
2022-09-15T02:04:07.643Z,0.00
2022-09-15T02:05:07.629Z,0.00
2022-09-15T02:06:07.618Z,0.00
2022-09-15T02:07:07.602Z,0.00
2022-09-15T02:08:07.591Z,0.00
2022-09-15T02:09:07.577Z,0.00
2022-09-15T02:10:07.589Z,0.00
2022-09-15T02:12:07.539Z,0.00
2022-09-15T02:13:07.525Z,0.00
2022-09-15T02:14:07.513Z,0.00
2022-09-15T02:15:07.500Z,0.00
2022-09-15T02:16:07.511Z,0.00
2022-09-15T02:17:07.474Z,0.00
2022-09-15T02:18:07.462Z,0.00
2022-09-15T02:19:07.447Z,0.00
2022-09-15T02:20:07.437Z,0.00
2022-09-15T02:21:07.424Z,0.00
2022-09-15T02:23:07.398Z,0.00
2022-09-15T02:24:07.387Z,0.00
2022-09-15T02:25:07.370Z,0.00
2022-09-15T02:26:07.381Z,0.00
2022-09-15T02:27:07.346Z,0.00
2022-09-15T02:28:07.333Z,0.00
2022-09-15T02:29:07.320Z,0.00
2022-09-15T02:30:07.310Z,0.00
2022-09-15T02:31:07.417Z,0.00
2022-09-15T02:32:07.683Z,0.00
2022-09-15T02:34:07.255Z,0.00
2022-09-15T02:35:07.246Z,0.00
2022-09-15T02:36:07.228Z,0.00
2022-09-15T02:37:07.214Z,0.00
2022-09-15T02:38:07.202Z,0.00
2022-09-15T02:39:07.187Z,0.00
2022-09-15T02:40:07.279Z,0.00
2022-09-15T02:41:07.162Z,0.00
2022-09-15T02:42:07.174Z,0.00
2022-09-15T02:43:07.136Z,0.00
2022-09-15T02:45:07.111Z,0.00
2022-09-15T02:46:07.157Z,0.00
2022-09-15T02:47:07.083Z,0.00
2022-09-15T02:48:07.072Z,0.00
2022-09-15T02:49:07.057Z,0.00
2022-09-15T02:50:07.046Z,0.00
2022-09-15T02:51:07.030Z,0.00
2022-09-15T02:52:07.019Z,0.00
2022-09-15T02:53:07.005Z,0.00
2022-09-15T02:54:06.993Z,0.00
2022-09-15T02:56:06.972Z,0.00
2022-09-15T02:57:06.952Z,0.00
2022-09-15T02:58:06.962Z,0.00
2022-09-15T02:59:06.926Z,0.00
2022-09-15T03:00:06.917Z,0.00
2022-09-15T03:01:06.997Z,0.00
2022-09-15T03:02:06.968Z,0.00
2022-09-15T03:03:06.876Z,0.00
2022-09-15T03:04:06.865Z,0.00
2022-09-15T03:05:06.849Z,0.00
2022-09-15T03:07:06.823Z,0.00
2022-09-15T03:08:06.812Z,0.00
2022-09-15T03:09:06.846Z,0.00
2022-09-15T03:10:06.785Z,0.00
2022-09-15T03:11:06.771Z,0.00
2022-09-15T03:12:06.762Z,0.00
2022-09-15T03:13:06.744Z,0.00
2022-09-15T03:14:06.766Z,0.00
2022-09-15T03:15:06.718Z,0.00
2022-09-15T03:16:06.771Z,0.00
2022-09-15T03:18:06.682Z,0.00
2022-09-15T03:19:06.666Z,0.00
2022-09-15T03:20:06.655Z,0.00
2022-09-15T03:21:06.640Z,0.00
2022-09-15T03:22:06.629Z,0.00
2022-09-15T03:23:06.614Z,0.00
2022-09-15T03:24:06.605Z,0.00
2022-09-15T03:25:06.593Z,0.00
2022-09-15T03:26:06.577Z,0.00
2022-09-15T03:27:06.563Z,0.00
2022-09-15T03:29:06.538Z,0.00
2022-09-15T03:30:06.551Z,0.00
2022-09-15T03:31:06.653Z,0.00
2022-09-15T03:32:06.497Z,0.00
2022-09-15T03:33:06.486Z,0.00
2022-09-15T03:34:06.473Z,0.00
2022-09-15T03:35:06.459Z,0.00
2022-09-15T03:36:06.448Z,0.00
2022-09-15T03:37:06.433Z,0.00
2022-09-15T03:38:06.420Z,0.00
2022-09-15T03:40:06.533Z,0.00
2022-09-15T03:41:06.381Z,0.00
2022-09-15T03:42:06.371Z,0.00
2022-09-15T03:43:06.357Z,0.00
2022-09-15T03:44:06.344Z,0.00
2022-09-15T03:45:06.332Z,0.00
2022-09-15T03:46:06.422Z,0.00
2022-09-15T03:47:06.304Z,0.00
2022-09-15T03:48:06.290Z,0.00
2022-09-15T03:49:06.279Z,0.00
2022-09-15T03:51:06.251Z,0.00
2022-09-15T03:52:06.241Z,0.00
2022-09-15T03:53:06.227Z,0.00
2022-09-15T03:54:06.210Z,0.00
2022-09-15T03:55:06.199Z,0.00
2022-09-15T03:56:06.184Z,0.00
2022-09-15T03:57:06.173Z,0.00
2022-09-15T03:58:06.158Z,0.00
2022-09-15T03:59:06.148Z,0.00
2022-09-15T04:00:06.136Z,0.00
2022-09-15T04:02:06.203Z,0.00
2022-09-15T04:03:06.094Z,0.00
2022-09-15T04:04:06.081Z,0.00
2022-09-15T04:05:06.068Z,0.00
2022-09-15T04:06:06.055Z,0.00
2022-09-15T04:07:06.046Z,0.00
2022-09-15T04:08:06.028Z,0.00
2022-09-15T04:09:06.017Z,0.00
2022-09-15T04:10:06.002Z,0.00
2022-09-15T04:11:05.994Z,0.00
2022-09-15T04:13:05.964Z,0.00
2022-09-15T04:14:05.950Z,0.00
2022-09-15T04:15:05.936Z,0.00
2022-09-15T04:16:06.104Z,0.00
2022-09-15T04:17:05.913Z,0.00
2022-09-15T04:18:05.921Z,0.00
2022-09-15T04:19:05.884Z,0.00
2022-09-15T04:20:05.870Z,0.00
2022-09-15T04:21:05.858Z,0.00
2022-09-15T04:22:05.843Z,0.00
2022-09-15T04:24:05.824Z,0.00
2022-09-15T04:25:05.807Z,0.00
2022-09-15T04:26:05.790Z,0.00
2022-09-15T04:27:05.779Z,0.00
2022-09-15T04:28:05.765Z,0.00
2022-09-15T04:29:05.757Z,0.00
2022-09-15T04:30:05.747Z,0.00
2022-09-15T04:31:05.787Z,0.00
2022-09-15T04:32:05.714Z,0.00
2022-09-15T04:33:05.700Z,0.00
2022-09-15T04:35:05.676Z,0.00
2022-09-15T04:36:05.659Z,0.00
2022-09-15T04:37:05.648Z,0.00
2022-09-15T04:38:05.632Z,0.00
2022-09-15T04:39:05.621Z,0.00
2022-09-15T04:40:05.649Z,0.00
2022-09-15T04:41:05.595Z,0.00
2022-09-15T04:42:05.580Z,0.00
2022-09-15T04:43:05.568Z,0.00
2022-09-15T04:44:05.553Z,0.00
2022-09-15T04:46:05.529Z,0.00
2022-09-15T04:47:05.656Z,0.00
2022-09-15T04:48:05.501Z,0.00
2022-09-15T04:49:05.488Z,0.00
2022-09-15T04:50:05.498Z,0.00
2022-09-15T04:51:05.462Z,0.00
2022-09-15T04:52:09.456Z,0.00
2022-09-15T04:53:05.436Z,0.00
2022-09-15T04:54:05.423Z,0.00
2022-09-15T04:55:05.412Z,0.00
2022-09-15T04:57:05.384Z,0.00
2022-09-15T04:58:05.373Z,0.00
2022-09-15T04:59:05.358Z,0.00
2022-09-15T05:00:05.342Z,5.62
2022-09-15T05:01:05.395Z,5.62
2022-09-15T05:02:05.389Z,5.62
2022-09-15T05:03:05.306Z,5.62
2022-09-15T05:04:05.292Z,5.62
2022-09-15T05:05:05.280Z,5.62
2022-09-15T05:06:05.292Z,5.62
2022-09-15T05:08:05.238Z,11.25
2022-09-15T05:09:09.717Z,11.25
2022-09-15T05:10:05.212Z,11.25
2022-09-15T05:11:05.200Z,16.87
2022-09-15T05:12:05.186Z,16.87
2022-09-15T05:13:05.178Z,22.50
2022-09-15T05:14:05.159Z,22.50
2022-09-15T05:15:05.148Z,28.12
2022-09-15T05:16:05.246Z,28.12
2022-09-15T05:17:05.121Z,33.75
2022-09-15T05:19:05.096Z,39.37
2022-09-15T05:20:05.078Z,39.37
2022-09-15T05:21:05.066Z,45.00
2022-09-15T05:22:05.077Z,50.62
2022-09-15T05:23:05.040Z,50.62
2022-09-15T05:24:05.027Z,56.25
2022-09-15T05:25:05.013Z,56.25
2022-09-15T05:26:05.000Z,61.87
2022-09-15T05:27:04.987Z,61.87
2022-09-15T05:28:04.974Z,67.50
2022-09-15T05:30:35.189Z,73.12
2022-09-15T05:31:04.982Z,73.12
2022-09-15T05:32:04.918Z,73.12
2022-09-15T05:33:04.907Z,73.12
2022-09-15T05:34:04.892Z,73.12
2022-09-15T05:35:04.881Z,73.12
2022-09-15T05:36:04.866Z,73.12
2022-09-15T05:37:04.855Z,78.75
2022-09-15T05:38:04.863Z,78.75
2022-09-15T05:39:04.830Z,84.37
2022-09-15T05:41:04.802Z,90.00
2022-09-15T05:42:04.788Z,95.62
2022-09-15T05:43:04.775Z,95.62
2022-09-15T05:44:04.760Z,101.25
2022-09-15T05:45:04.749Z,106.87
2022-09-15T05:46:04.806Z,112.50
2022-09-15T05:47:04.722Z,118.12
2022-09-15T05:48:04.708Z,123.75
2022-09-15T05:49:04.695Z,135.00
2022-09-15T05:50:04.681Z,140.62
2022-09-15T05:52:04.655Z,157.50
2022-09-15T05:53:04.643Z,168.75
2022-09-15T05:54:04.650Z,180.00
2022-09-15T05:55:04.621Z,208.12
2022-09-15T05:56:04.600Z,208.12
2022-09-15T05:57:04.596Z,196.87
2022-09-15T05:58:04.576Z,202.50
2022-09-15T05:59:04.561Z,219.37
2022-09-15T06:00:04.546Z,236.25
2022-09-15T06:01:04.536Z,258.75
2022-09-15T06:03:04.615Z,281.25
2022-09-15T06:04:04.493Z,309.37
2022-09-15T06:05:04.482Z,365.62
2022-09-15T06:06:04.467Z,298.12
2022-09-15T06:07:04.456Z,286.87
2022-09-15T06:08:04.442Z,292.50
2022-09-15T06:09:04.751Z,298.12
2022-09-15T06:10:04.439Z,348.75
2022-09-15T06:11:04.408Z,348.75
2022-09-15T06:12:04.388Z,388.12
2022-09-15T06:14:04.363Z,585.00
2022-09-15T06:15:04.353Z,421.87
2022-09-15T06:16:04.376Z,410.62
2022-09-15T06:18:04.314Z,483.75
2022-09-15T06:19:04.314Z,551.25
2022-09-15T06:20:04.295Z,624.37
2022-09-15T06:21:04.278Z,821.25
2022-09-15T06:22:04.267Z,703.12
2022-09-15T06:23:04.269Z,506.25
2022-09-15T06:25:04.227Z,838.12
2022-09-15T06:26:04.236Z,928.12
2022-09-15T06:27:04.197Z,961.87
2022-09-15T06:28:04.182Z,978.75
2022-09-15T06:29:04.170Z,928.12
2022-09-15T06:30:04.155Z,978.75
2022-09-15T06:31:04.145Z,838.12
2022-09-15T06:32:04.158Z,978.75
2022-09-15T06:33:04.118Z,1102.50
2022-09-15T06:34:04.124Z,1119.37
2022-09-15T06:36:04.079Z,1215.00
2022-09-15T06:37:04.067Z,1181.25
2022-09-15T06:38:04.054Z,1215.00
2022-09-15T06:39:04.043Z,1293.75
2022-09-15T06:40:04.112Z,1136.25
2022-09-15T06:41:04.015Z,1074.37
2022-09-15T06:42:05.690Z,883.12
2022-09-15T06:43:03.989Z,866.25
2022-09-15T06:44:03.974Z,855.00
2022-09-15T06:45:03.965Z,900.00
2022-09-15T06:47:03.936Z,860.62
2022-09-15T06:48:23.603Z,916.87
2022-09-15T06:49:03.914Z,888.75
2022-09-15T06:50:03.898Z,922.50
2022-09-15T06:51:03.886Z,826.87
2022-09-15T06:52:03.872Z,1040.62
2022-09-15T06:53:03.860Z,1096.87
2022-09-15T06:54:03.851Z,1198.12
2022-09-15T06:55:03.836Z,1231.87
2022-09-15T06:56:03.821Z,1147.50
2022-09-15T06:58:03.828Z,1220.62
2022-09-15T06:59:03.782Z,1181.25
2022-09-15T07:00:03.800Z,1074.37
2022-09-15T07:01:03.761Z,1057.50
2022-09-15T07:02:05.271Z,883.12
2022-09-15T07:03:03.829Z,1175.62
2022-09-15T07:04:03.717Z,1203.75
2022-09-15T07:05:03.706Z,1231.87
2022-09-15T07:06:03.690Z,1276.87
2022-09-15T07:07:03.687Z,1417.50
2022-09-15T07:09:03.660Z,1445.62
2022-09-15T07:10:03.639Z,1316.25
2022-09-15T07:11:03.630Z,815.62
2022-09-15T07:12:03.616Z,1023.75
2022-09-15T07:13:03.605Z,1271.25
2022-09-15T07:14:03.612Z,1203.75
2022-09-15T07:15:03.577Z,1085.62
2022-09-15T07:16:03.678Z,1220.62
2022-09-15T07:17:03.552Z,1327.50
2022-09-15T07:18:03.540Z,1372.50
2022-09-15T07:20:03.512Z,1659.37
2022-09-15T07:21:03.501Z,1670.62
2022-09-15T07:22:03.489Z,1456.87
2022-09-15T07:23:03.479Z,945.00
2022-09-15T07:24:06.975Z,956.25
2022-09-15T07:25:03.449Z,1704.37
2022-09-15T07:26:03.436Z,945.00
2022-09-15T07:27:03.424Z,1783.12
2022-09-15T07:28:03.409Z,933.75
2022-09-15T07:29:03.399Z,1642.50
2022-09-15T07:31:03.372Z,1614.37
2022-09-15T07:32:04.417Z,911.25
2022-09-15T07:33:03.345Z,1423.12
2022-09-15T07:34:03.338Z,871.87
2022-09-15T07:35:03.321Z,1541.25
2022-09-15T07:36:03.307Z,1282.50
2022-09-15T07:37:03.297Z,1316.25
2022-09-15T07:38:03.281Z,1327.50
2022-09-15T07:39:03.269Z,1485.00
2022-09-15T07:40:03.360Z,1496.25
2022-09-15T07:42:03.231Z,1372.50
2022-09-15T07:43:03.217Z,1676.25
2022-09-15T07:44:03.205Z,1659.37
2022-09-15T07:45:03.190Z,1738.12
2022-09-15T07:46:03.386Z,1755.00
2022-09-15T07:47:03.168Z,1721.25
2022-09-15T07:48:03.154Z,1957.50
2022-09-15T07:49:03.466Z,1963.12
2022-09-15T07:50:03.128Z,1996.87
2022-09-15T07:51:03.113Z,1845.00
2022-09-15T07:53:03.088Z,1856.25
2022-09-15T07:54:03.077Z,1974.37
2022-09-15T07:55:03.066Z,1895.62
2022-09-15T07:56:03.053Z,1901.25
2022-09-15T07:57:03.041Z,2407.50
2022-09-15T07:58:03.029Z,1608.75
2022-09-15T07:59:03.015Z,1344.37
2022-09-15T08:00:03.005Z,1434.37
2022-09-15T08:01:03.082Z,1170.00
2022-09-15T08:02:03.171Z,1125.00
2022-09-15T08:04:02.963Z,990.00
2022-09-15T08:05:02.941Z,995.62
2022-09-15T08:06:02.930Z,973.12
2022-09-15T08:07:02.917Z,905.62
2022-09-15T08:08:02.905Z,855.00
2022-09-15T08:09:03.047Z,849.37
2022-09-15T08:10:02.881Z,843.75
2022-09-15T08:11:02.865Z,804.37
2022-09-15T08:12:02.853Z,742.50
2022-09-15T08:13:02.840Z,697.50
2022-09-15T08:15:02.812Z,720.00
2022-09-15T08:16:02.942Z,725.62
2022-09-15T08:17:02.785Z,691.87
2022-09-15T08:18:02.803Z,669.37
2022-09-15T08:19:02.761Z,646.87
2022-09-15T08:20:02.750Z,607.50
2022-09-15T08:21:02.734Z,579.37
2022-09-15T08:22:02.724Z,545.62
2022-09-15T08:23:02.708Z,551.25
2022-09-15T08:24:02.698Z,562.50
2022-09-15T08:26:02.672Z,556.87
2022-09-15T08:27:02.657Z,528.75
2022-09-15T08:28:02.647Z,534.37
2022-09-15T08:29:02.631Z,556.87
2022-09-15T08:30:02.622Z,601.87
2022-09-15T08:31:02.630Z,658.12
2022-09-15T08:32:02.596Z,675.00
2022-09-15T08:33:02.581Z,720.00
2022-09-15T08:34:02.591Z,748.12
2022-09-15T08:35:02.557Z,787.50
2022-09-15T08:37:02.530Z,798.75
2022-09-15T08:38:02.519Z,866.25
2022-09-15T08:39:02.504Z,950.62
2022-09-15T08:40:02.542Z,1018.12
2022-09-15T08:41:02.479Z,1057.50
2022-09-15T08:42:02.467Z,1226.25
2022-09-15T08:43:02.453Z,1546.87
2022-09-15T08:44:02.443Z,2148.75
2022-09-15T08:45:02.447Z,2115.00
2022-09-15T08:46:02.466Z,1513.12
2022-09-15T08:48:02.391Z,1890.00
2022-09-15T08:49:03.215Z,2705.62
2022-09-15T08:50:02.387Z,1940.62
2022-09-15T08:51:02.349Z,1316.25
2022-09-15T08:52:02.339Z,1198.12
2022-09-15T08:53:02.327Z,2424.37
2022-09-15T08:54:02.316Z,2210.62
2022-09-15T08:55:02.300Z,2328.75
2022-09-15T08:56:02.289Z,3105.00
2022-09-15T08:57:02.275Z,3802.50
2022-09-15T08:59:02.271Z,1856.25
2022-09-15T09:00:02.238Z,1321.87
2022-09-15T09:01:02.226Z,1085.62
2022-09-15T09:02:02.291Z,961.87
2022-09-15T09:03:02.353Z,883.12
2022-09-15T09:04:02.190Z,1350.00
2022-09-15T09:05:02.173Z,978.75
2022-09-15T09:06:02.187Z,877.50
2022-09-15T09:07:02.149Z,860.62
2022-09-15T09:08:02.138Z,939.37
2022-09-15T09:11:02.098Z,1226.25
2022-09-15T09:12:02.087Z,1018.12
2022-09-15T09:13:02.072Z,961.87
2022-09-15T09:14:02.061Z,1018.12
2022-09-15T09:15:02.047Z,1248.75
2022-09-15T09:16:02.118Z,1625.62
2022-09-15T09:17:02.020Z,1738.12
2022-09-15T09:18:02.010Z,1541.25
2022-09-15T09:19:01.994Z,1389.37
2022-09-15T09:21:01.970Z,871.87
2022-09-15T09:22:01.982Z,675.00
2022-09-15T09:23:01.943Z,556.87
2022-09-15T09:24:01.932Z,556.87
2022-09-15T09:25:11.498Z,579.37
2022-09-15T09:26:07.415Z,613.12
2022-09-15T09:27:01.895Z,635.62
2022-09-15T09:28:01.884Z,646.87
2022-09-15T09:29:01.870Z,669.37
2022-09-15T09:30:01.902Z,748.12
2022-09-15T09:32:01.832Z,1192.50
2022-09-15T09:33:01.819Z,3043.12
2022-09-15T09:34:01.807Z,1378.12
2022-09-15T09:35:01.792Z,967.50
2022-09-15T09:36:01.783Z,871.87
2022-09-15T09:37:01.767Z,916.87
2022-09-15T09:38:01.779Z,1164.37
2022-09-15T09:39:01.745Z,2356.87
2022-09-15T09:40:01.821Z,1861.87
2022-09-15T09:41:02.680Z,1231.87
2022-09-15T09:43:01.694Z,2604.37
2022-09-15T09:44:01.681Z,2604.37
2022-09-15T09:45:01.668Z,2188.12
2022-09-15T09:46:01.704Z,2328.75
2022-09-15T09:47:01.641Z,1383.75
2022-09-15T09:48:02.017Z,1243.12
2022-09-15T09:49:01.615Z,1755.00
2022-09-15T09:50:01.605Z,1383.75
2022-09-15T09:51:01.591Z,1963.12
2022-09-15T09:52:01.579Z,1209.37
2022-09-15T09:54:01.577Z,984.37
2022-09-15T09:55:01.552Z,1051.87
2022-09-15T09:56:01.564Z,1366.87
2022-09-15T09:57:01.514Z,1158.75
2022-09-15T09:58:01.504Z,1530.00
2022-09-15T09:59:01.488Z,1344.37
2022-09-15T10:00:01.480Z,1215.00
2022-09-15T10:01:01.519Z,1350.00
2022-09-15T10:02:01.453Z,1501.87
2022-09-15T10:03:01.437Z,2272.50
2022-09-15T10:05:01.434Z,2126.25
2022-09-15T10:06:01.403Z,1957.50
2022-09-15T10:07:01.388Z,1591.87
2022-09-15T10:08:01.377Z,1006.87
2022-09-15T10:09:01.363Z,871.87
2022-09-15T10:10:01.384Z,787.50
2022-09-15T10:11:01.339Z,781.87
2022-09-15T10:12:01.327Z,826.87
2022-09-15T10:13:01.312Z,894.37
2022-09-15T10:14:01.303Z,1018.12
2022-09-15T10:16:01.278Z,1395.00
2022-09-15T10:17:01.326Z,1490.62
2022-09-15T10:18:01.255Z,1794.37
2022-09-15T10:19:01.237Z,1873.12
2022-09-15T10:20:01.227Z,2508.75
2022-09-15T10:21:01.212Z,2745.00
2022-09-15T10:22:01.203Z,3172.50
2022-09-15T10:23:01.188Z,3661.87
2022-09-15T10:24:01.178Z,2784.37
2022-09-15T10:25:01.163Z,3228.75
2022-09-15T10:27:01.138Z,2863.12
2022-09-15T10:28:01.128Z,2767.50
2022-09-15T10:29:01.113Z,2851.87
2022-09-15T10:30:01.105Z,2868.75
2022-09-15T10:31:01.087Z,2846.25
2022-09-15T10:32:01.111Z,3352.50
2022-09-15T10:33:01.064Z,3746.25
2022-09-15T10:34:01.053Z,3099.37
2022-09-15T10:35:01.039Z,2649.37
2022-09-15T10:36:01.030Z,2947.50
2022-09-15T10:38:01.008Z,2919.37
2022-09-15T10:39:00.993Z,1265.62
2022-09-15T10:40:01.099Z,1136.25
2022-09-15T10:41:00.967Z,1074.37
2022-09-15T10:42:00.978Z,1040.62
2022-09-15T10:43:00.943Z,1125.00
2022-09-15T10:44:00.931Z,1158.75
2022-09-15T10:45:00.917Z,1226.25
2022-09-15T10:46:01.016Z,1490.62
2022-09-15T10:47:00.893Z,1485.00
2022-09-15T10:49:00.874Z,1485.00
2022-09-15T10:50:00.857Z,1710.00
2022-09-15T10:51:00.842Z,2008.12
2022-09-15T10:52:00.830Z,2362.50
2022-09-15T10:53:00.817Z,2548.12
2022-09-15T10:54:01.001Z,3875.62
2022-09-15T10:55:00.792Z,2576.25
2022-09-15T10:56:00.782Z,1822.50
2022-09-15T10:57:00.769Z,1366.87
2022-09-15T10:58:00.781Z,1096.87
2022-09-15T11:00:00.733Z,753.75
2022-09-15T11:01:00.817Z,753.75
2022-09-15T11:02:00.746Z,815.62
2022-09-15T11:03:00.692Z,821.25
2022-09-15T11:04:00.681Z,793.12
2022-09-15T11:05:00.669Z,759.37
2022-09-15T11:06:00.658Z,720.00
2022-09-15T11:07:00.645Z,658.12
2022-09-15T11:08:00.632Z,630.00
2022-09-15T11:09:00.619Z,635.62
2022-09-15T11:11:00.592Z,686.25
2022-09-15T11:12:00.581Z,748.12
2022-09-15T11:13:00.569Z,821.25
2022-09-15T11:14:00.578Z,916.87
2022-09-15T11:15:00.539Z,978.75
2022-09-15T11:16:00.593Z,1018.12
2022-09-15T11:17:00.517Z,1012.50
2022-09-15T11:18:00.504Z,956.25
2022-09-15T11:19:00.491Z,871.87
2022-09-15T11:20:00.479Z,810.00
2022-09-15T11:22:00.455Z,781.87
2022-09-15T11:23:00.440Z,798.75
2022-09-15T11:24:00.432Z,826.87
2022-09-15T11:25:00.429Z,821.25
2022-09-15T11:26:00.408Z,748.12
2022-09-15T11:27:00.392Z,669.37
2022-09-15T11:28:00.383Z,618.75
2022-09-15T11:29:00.367Z,652.50
2022-09-15T11:30:00.445Z,748.12
2022-09-15T11:31:00.376Z,826.87
2022-09-15T11:33:00.317Z,843.75
2022-09-15T11:34:00.306Z,860.62
2022-09-15T11:35:00.290Z,916.87
2022-09-15T11:36:00.278Z,978.75
2022-09-15T11:37:00.264Z,1040.62
2022-09-15T11:38:00.252Z,1102.50
2022-09-15T11:39:00.239Z,1130.62
2022-09-15T11:40:00.456Z,1226.25
2022-09-15T11:41:00.213Z,1051.87
2022-09-15T11:42:00.202Z,990.00
2022-09-15T11:44:00.175Z,871.87
2022-09-15T11:45:00.160Z,855.00
2022-09-15T11:46:00.173Z,860.62
2022-09-15T11:47:00.134Z,877.50
2022-09-15T11:48:00.124Z,905.62
2022-09-15T11:49:00.109Z,922.50
2022-09-15T11:50:00.100Z,922.50
2022-09-15T11:51:00.086Z,945.00
2022-09-15T11:52:00.089Z,984.37
2022-09-15T11:53:00.057Z,1006.87
2022-09-15T11:55:00.031Z,945.00
2022-09-15T11:56:00.021Z,922.50
2022-09-15T11:57:00.007Z,911.25
2022-09-15T11:57:59.994Z,905.62
2022-09-15T11:58:59.983Z,900.00
2022-09-15T11:59:59.967Z,900.00
2022-09-15T12:00:59.956Z,894.37
2022-09-15T12:02:00.067Z,888.75
2022-09-15T12:03:00.024Z,883.12
2022-09-15T12:03:59.915Z,888.75
2022-09-15T12:05:59.889Z,939.37
2022-09-15T12:07:59.864Z,990.00
2022-09-15T12:08:59.854Z,1068.75
2022-09-15T12:09:59.838Z,1198.12
2022-09-15T12:10:59.827Z,1305.00
2022-09-15T12:11:59.811Z,1496.25
2022-09-15T12:12:59.805Z,1546.87
2022-09-15T12:13:59.786Z,1473.75
2022-09-15T12:14:59.775Z,1423.12
2022-09-15T12:16:59.751Z,1361.25
2022-09-15T12:18:01.339Z,1406.25
2022-09-15T12:18:59.724Z,1496.25
2022-09-15T12:19:59.711Z,2722.50
2022-09-15T12:20:59.699Z,1591.87
2022-09-15T12:21:59.683Z,1468.12
2022-09-15T12:22:59.674Z,1344.37
2022-09-15T12:23:59.668Z,1344.37
2022-09-15T12:25:01.119Z,1580.62
2022-09-15T12:25:59.632Z,1513.12
2022-09-15T12:27:59.604Z,1901.25
2022-09-15T12:28:59.593Z,2199.37
2022-09-15T12:29:59.578Z,1586.25
2022-09-15T12:30:59.613Z,3403.12
2022-09-15T12:31:59.553Z,1940.62
2022-09-15T12:32:59.543Z,1665.00
2022-09-15T12:33:59.549Z,1800.00
2022-09-15T12:34:59.523Z,2030.62
2022-09-15T12:35:59.504Z,1963.12
2022-09-15T12:38:59.467Z,1766.25
2022-09-15T12:39:59.524Z,1923.75
2022-09-15T12:40:59.443Z,2424.37
2022-09-15T12:41:59.427Z,1861.87
2022-09-15T12:42:59.418Z,1749.37
2022-09-15T12:43:59.403Z,1783.12
2022-09-15T12:44:59.393Z,1743.75
2022-09-15T12:45:59.456Z,1698.75
2022-09-15T12:46:59.368Z,1839.37
2022-09-15T12:47:59.353Z,1530.00
2022-09-15T12:49:59.352Z,1355.62
2022-09-15T12:50:59.317Z,1316.25
2022-09-15T12:51:59.305Z,1231.87
2022-09-15T12:52:59.292Z,1175.62
2022-09-15T12:53:59.279Z,1096.87
2022-09-15T12:54:59.266Z,1057.50
2022-09-15T12:55:59.254Z,1012.50
2022-09-15T12:56:59.242Z,984.37
2022-09-15T12:57:59.226Z,978.75
2022-09-15T12:59:02.242Z,1012.50
2022-09-15T13:01:17.486Z,995.62
2022-09-15T13:02:01.249Z,961.87
2022-09-15T13:02:59.227Z,945.00
2022-09-15T13:03:59.151Z,928.12
2022-09-15T13:04:59.140Z,894.37
2022-09-15T13:05:59.149Z,877.50
2022-09-15T13:06:59.115Z,871.87
2022-09-15T13:07:59.100Z,866.25
2022-09-15T13:08:59.090Z,866.25
2022-09-15T13:09:59.086Z,866.25
2022-09-15T13:11:59.050Z,905.62
2022-09-15T13:12:59.041Z,1226.25
2022-09-15T13:13:59.029Z,1816.87
2022-09-15T13:14:59.012Z,1293.75
2022-09-15T13:15:59.033Z,3065.62
2022-09-15T13:16:58.987Z,2160.00
2022-09-15T13:17:58.972Z,1248.75
2022-09-15T13:18:58.963Z,995.62
2022-09-15T13:19:58.949Z,871.87
2022-09-15T13:20:58.942Z,770.62
2022-09-15T13:22:58.914Z,686.25
2022-09-15T13:23:58.900Z,669.37
2022-09-15T13:25:01.546Z,669.37
2022-09-15T13:25:58.877Z,646.87
2022-09-15T13:26:58.867Z,618.75
2022-09-15T13:27:58.851Z,579.37
2022-09-15T13:28:58.951Z,523.12
2022-09-15T13:29:58.826Z,466.87
2022-09-15T13:30:58.965Z,433.12
2022-09-15T13:31:58.801Z,416.25
2022-09-15T13:35:04.199Z,478.12
2022-09-15T13:35:58.800Z,556.87
2022-09-15T13:38:15.032Z,663.75
2022-09-15T13:39:00.716Z,691.87
2022-09-15T13:39:58.740Z,742.50
2022-09-15T13:40:58.686Z,849.37
2022-09-15T13:41:58.673Z,1136.25
2022-09-15T13:42:58.661Z,2182.50
2022-09-15T13:44:58.635Z,1333.12
2022-09-15T13:45:58.633Z,1485.00
2022-09-15T13:46:58.610Z,2165.62
2022-09-15T13:47:58.595Z,2823.75
2022-09-15T13:48:58.585Z,2205.00
2022-09-15T13:49:58.569Z,1890.00
2022-09-15T13:50:58.557Z,2036.25
2022-09-15T13:51:58.543Z,1164.37
2022-09-15T13:52:58.532Z,984.37
2022-09-15T13:53:58.539Z,894.37
2022-09-15T13:55:58.489Z,911.25
2022-09-15T13:56:58.477Z,900.00
2022-09-15T13:59:04.443Z,821.25
2022-09-15T13:59:58.436Z,843.75
2022-09-15T14:00:58.514Z,1012.50
2022-09-15T14:01:58.551Z,984.37